KBWW

Bowman Regional Airport

Bowman, North Dakota, USA
METAR KBWW 100615Z AUTO 23016KT 10SM CLR M05/M10 A3000 RMK AO2
Observed Flight Rules
Dec-10 @ 06:15 UTC (14 minutes ago) Visual Flight Rules
Wind Visibility Clouds
230° at 16 knots 10 miles
  • Clear skies
Temperatures Readings
Current -5°C / 23°F
Dewpoint -10°C / 14°F
Humidity 68%
Altimeter 30" Hg
Pressure 1016 hPa
Elevation 910
METAR KBWW 100615Z AUTO 23016KT 10SM CLR M05/M10 A3000 RMK AO2
Observed Flight Rules
Dec-10 @ 06:15 UTC
(14 minutes ago)
VFR
Wind Visibility
230° at 16 knots 10 miles
Clouds
  • Clear skies
Temperature Dewpoint
-5°C / 23°F -10°C / 14°F
Humidity Altimeter Pressure
68% 30" Hg 1016 hPa